イスタンブル の空港の天気 - METARとTAF

アタテュルク国際空港(イスタンブル) ( LTBA / IST ) - トルコ イスタンブル
飛行場実況気象(Metar)
観測時間05/29 02:20 EET (05/28 23:20 UTC)
風向・風速静穏 0m/s
視程10km以上
天気現象
なし
気温22℃
湿度65%
気圧1010hPa
METARLTBA 282320Z 00000KT CAVOK 22/15 Q1010 NOSIG RMK RWY23 00000KT
過去の天気等 Google飛行場航空写真 Wunderground天気予報

過去48時間のMETAR

飛行場予報(TAF)
発表時間: 5/28 19:40 EET (5/28 16:40 UTC)
予報対象時間: 28日21時 EET ~ 30日3時 EET
風向・風速不定 1m/s
視程10km以上
なし
29日15時 EET ~ 29日18時 EET に徐々に
風向・風速東南東 6m/s
29日23時 EET ~ 30日2時 EET に徐々に
風向・風速南西 6m/s
TAF LTBA 281640Z 2818/2924 VRB02KT CAVOK
BECMG 2912/2915 11012KT
BECMG 2920/2923 22012KT